createdAt,value
2022-10-05T00:00:41.374Z,0.00
2022-10-05T00:01:41.775Z,0.00
2022-10-05T00:02:41.375Z,0.00
2022-10-05T00:03:41.370Z,0.00
2022-10-05T00:04:41.378Z,0.00
2022-10-05T00:06:06.379Z,0.00
2022-10-05T00:06:41.324Z,0.00
2022-10-05T00:07:41.347Z,0.00
2022-10-05T00:08:41.282Z,0.00
2022-10-05T00:09:41.324Z,0.00
2022-10-05T00:10:47.995Z,0.00
2022-10-05T00:11:41.254Z,0.00
2022-10-05T00:12:41.343Z,0.00
2022-10-05T00:13:41.234Z,0.00
2022-10-05T00:14:41.227Z,0.00
2022-10-05T00:15:41.247Z,0.00
2022-10-05T00:16:41.249Z,0.00
2022-10-05T00:17:41.207Z,0.00
2022-10-05T00:18:41.207Z,0.00
2022-10-05T00:21:15.580Z,0.00
2022-10-05T00:22:16.582Z,0.00
2022-10-05T00:23:16.473Z,0.00
2022-10-05T00:24:16.149Z,0.00
2022-10-05T00:25:16.265Z,0.00
2022-10-05T00:26:16.190Z,0.00
2022-10-05T00:27:16.193Z,0.00
2022-10-05T00:28:16.161Z,0.00
2022-10-05T00:29:16.153Z,0.00
2022-10-05T00:30:16.257Z,0.00
2022-10-05T00:31:16.559Z,0.00
2022-10-05T00:32:16.087Z,0.00
2022-10-05T00:33:16.130Z,0.00
2022-10-05T00:34:16.098Z,0.00
2022-10-05T00:35:15.990Z,0.00
2022-10-05T00:36:16.047Z,0.00
2022-10-05T00:37:16.004Z,0.00
2022-10-05T00:38:16.121Z,0.00
2022-10-05T00:39:16.121Z,0.00
2022-10-05T00:40:16.025Z,0.00
2022-10-05T00:41:16.055Z,0.00
2022-10-05T00:42:16.008Z,0.00
2022-10-05T00:43:15.978Z,0.00
2022-10-05T00:44:16.005Z,0.00
2022-10-05T00:45:16.057Z,0.00
2022-10-05T00:46:16.028Z,0.00
2022-10-05T00:47:15.958Z,0.00
2022-10-05T00:48:16.083Z,0.00
2022-10-05T00:49:15.995Z,0.00
2022-10-05T00:50:15.901Z,0.00
2022-10-05T00:51:15.881Z,0.00
2022-10-05T00:52:15.838Z,0.00
2022-10-05T00:53:15.789Z,0.00
2022-10-05T00:54:18.364Z,0.00
2022-10-05T00:55:15.917Z,0.00
2022-10-05T00:56:15.842Z,0.00
2022-10-05T00:57:15.894Z,0.00
2022-10-05T00:58:15.841Z,0.00
2022-10-05T00:59:15.821Z,0.00
2022-10-05T01:00:15.766Z,0.00
2022-10-05T01:01:15.856Z,0.00
2022-10-05T01:02:15.880Z,0.00
2022-10-05T01:03:15.753Z,0.00
2022-10-05T01:04:15.679Z,0.00
2022-10-05T01:05:15.802Z,0.00
2022-10-05T01:06:15.681Z,0.00
2022-10-05T01:07:15.699Z,0.00
2022-10-05T01:08:16.595Z,0.00
2022-10-05T01:09:15.748Z,0.00
2022-10-05T01:10:15.768Z,0.00
2022-10-05T01:11:15.722Z,0.00
2022-10-05T01:12:15.927Z,0.00
2022-10-05T01:13:15.633Z,0.00
2022-10-05T01:14:15.649Z,0.00
2022-10-05T01:15:15.649Z,0.00
2022-10-05T01:16:15.684Z,0.00
2022-10-05T01:17:15.601Z,0.00
2022-10-05T01:18:15.707Z,0.00
2022-10-05T01:19:15.561Z,0.00
2022-10-05T01:20:15.534Z,0.00
2022-10-05T01:21:15.638Z,0.00
2022-10-05T01:22:15.503Z,0.00
2022-10-05T01:23:15.500Z,0.00
2022-10-05T01:24:15.577Z,0.00
2022-10-05T01:25:15.454Z,0.00
2022-10-05T01:26:15.604Z,0.00
2022-10-05T01:27:15.480Z,0.00
2022-10-05T01:28:15.740Z,0.00
2022-10-05T01:29:15.583Z,0.00
2022-10-05T01:30:15.533Z,0.00
2022-10-05T01:31:15.604Z,0.00
2022-10-05T01:32:15.510Z,0.00
2022-10-05T01:33:15.396Z,0.00
2022-10-05T01:34:15.472Z,0.00
2022-10-05T01:35:15.400Z,0.00
2022-10-05T01:36:15.358Z,0.00
2022-10-05T01:37:15.495Z,0.00
2022-10-05T01:38:15.440Z,0.00
2022-10-05T01:39:15.392Z,0.00
2022-10-05T01:40:15.403Z,0.00
2022-10-05T01:41:15.424Z,0.00
2022-10-05T01:42:15.408Z,0.00
2022-10-05T01:43:15.392Z,0.00
2022-10-05T01:44:15.436Z,0.00
2022-10-05T01:45:15.228Z,0.00
2022-10-05T01:46:15.408Z,0.00
2022-10-05T01:47:15.379Z,0.00
2022-10-05T01:48:15.241Z,0.00
2022-10-05T01:49:15.357Z,0.00
2022-10-05T01:50:15.325Z,0.00
2022-10-05T01:51:15.273Z,0.00
2022-10-05T01:52:15.438Z,0.00
2022-10-05T01:53:15.318Z,0.00
2022-10-05T01:54:15.264Z,0.00
2022-10-05T01:55:15.250Z,0.00
2022-10-05T01:56:15.166Z,0.00
2022-10-05T01:57:15.322Z,0.00
2022-10-05T01:58:15.306Z,0.00
2022-10-05T01:59:15.190Z,0.00
2022-10-05T02:00:15.217Z,0.00
2022-10-05T02:01:15.148Z,0.00
2022-10-05T02:02:15.188Z,0.00
2022-10-05T02:03:15.125Z,0.00
2022-10-05T02:04:30.826Z,0.00
2022-10-05T02:05:15.147Z,0.00
2022-10-05T02:06:15.097Z,0.00
2022-10-05T02:07:15.068Z,0.00
2022-10-05T02:08:15.107Z,0.00
2022-10-05T02:09:15.059Z,0.00
2022-10-05T02:10:15.073Z,0.00
2022-10-05T02:11:15.061Z,0.00
2022-10-05T02:12:15.062Z,0.00
2022-10-05T02:13:15.095Z,0.00
2022-10-05T02:14:15.101Z,0.00
2022-10-05T02:15:14.984Z,0.00
2022-10-05T02:16:15.140Z,0.00
2022-10-05T02:17:14.995Z,0.00
2022-10-05T02:18:15.034Z,0.00
2022-10-05T02:19:14.949Z,0.00
2022-10-05T02:20:15.179Z,0.00
2022-10-05T02:21:14.916Z,0.00
2022-10-05T02:22:14.994Z,0.00
2022-10-05T02:23:14.877Z,0.00
2022-10-05T02:24:14.988Z,0.00
2022-10-05T02:25:14.850Z,0.00
2022-10-05T02:26:14.910Z,0.00
2022-10-05T02:27:14.870Z,0.00
2022-10-05T02:28:14.950Z,0.00
2022-10-05T02:29:14.828Z,0.00
2022-10-05T02:30:16.675Z,0.00
2022-10-05T02:31:14.829Z,0.00
2022-10-05T02:32:14.812Z,0.00
2022-10-05T02:33:14.868Z,0.00
2022-10-05T02:34:14.846Z,0.00
2022-10-05T02:35:14.897Z,0.00
2022-10-05T02:36:14.837Z,0.00
2022-10-05T02:37:15.019Z,0.00
2022-10-05T02:38:14.850Z,0.00
2022-10-05T02:39:14.882Z,0.00
2022-10-05T02:40:14.980Z,0.00
2022-10-05T02:41:14.947Z,0.00
2022-10-05T02:42:14.729Z,0.00
2022-10-05T02:43:14.808Z,0.00
2022-10-05T02:44:14.673Z,0.00
2022-10-05T02:45:14.687Z,0.00
2022-10-05T02:46:14.815Z,0.00
2022-10-05T02:47:14.720Z,0.00
2022-10-05T02:48:14.592Z,0.00
2022-10-05T02:49:14.625Z,0.00
2022-10-05T02:50:14.738Z,0.00
2022-10-05T02:51:14.717Z,0.00
2022-10-05T02:52:14.576Z,0.00
2022-10-05T02:53:14.576Z,0.00
2022-10-05T02:54:14.554Z,0.00
2022-10-05T02:55:14.561Z,0.00
2022-10-05T02:56:14.504Z,0.00
2022-10-05T02:57:14.644Z,0.00
2022-10-05T02:58:14.521Z,0.00
2022-10-05T02:59:14.521Z,0.00
2022-10-05T03:00:14.616Z,0.00
2022-10-05T03:01:14.553Z,0.00
2022-10-05T03:02:14.607Z,0.00
2022-10-05T03:03:14.529Z,0.00
2022-10-05T03:04:14.588Z,0.00
2022-10-05T03:05:14.460Z,0.00
2022-10-05T03:06:14.674Z,0.00
2022-10-05T03:07:14.394Z,0.00
2022-10-05T03:08:14.458Z,0.00
2022-10-05T03:09:14.400Z,0.00
2022-10-05T03:10:14.541Z,0.00
2022-10-05T03:11:14.362Z,0.00
2022-10-05T03:12:14.340Z,0.00
2022-10-05T03:13:14.380Z,0.00
2022-10-05T03:14:14.407Z,0.00
2022-10-05T03:15:14.287Z,0.00
2022-10-05T03:16:14.409Z,0.00
2022-10-05T03:17:14.374Z,0.00
2022-10-05T03:18:14.348Z,0.00
2022-10-05T03:19:14.342Z,0.00
2022-10-05T03:20:14.271Z,0.00
2022-10-05T03:21:14.232Z,0.00
2022-10-05T03:22:14.362Z,0.00
2022-10-05T03:23:14.225Z,0.00
2022-10-05T03:24:14.227Z,0.00
2022-10-05T03:25:14.216Z,0.00
2022-10-05T03:26:14.238Z,0.00
2022-10-05T03:27:14.180Z,0.00
2022-10-05T03:28:14.290Z,0.00
2022-10-05T03:29:14.175Z,0.00
2022-10-05T03:30:14.253Z,0.00
2022-10-05T03:31:14.281Z,0.00
2022-10-05T03:32:14.139Z,0.00
2022-10-05T03:33:14.087Z,0.00
2022-10-05T03:34:14.133Z,0.00
2022-10-05T03:35:14.100Z,0.00
2022-10-05T03:36:14.195Z,0.00
2022-10-05T03:37:14.115Z,0.00
2022-10-05T03:38:14.078Z,0.00
2022-10-05T03:39:14.050Z,0.00
2022-10-05T03:40:14.148Z,0.00
2022-10-05T03:41:14.052Z,0.00
2022-10-05T03:42:14.098Z,0.00
2022-10-05T03:43:14.033Z,0.00
2022-10-05T03:44:14.040Z,0.00
2022-10-05T03:45:14.031Z,0.00
2022-10-05T03:46:14.091Z,0.00
2022-10-05T03:47:13.953Z,0.00
2022-10-05T03:48:13.984Z,0.00
2022-10-05T03:49:13.903Z,0.00
2022-10-05T03:50:13.967Z,0.00
2022-10-05T03:51:13.954Z,0.00
2022-10-05T03:52:13.930Z,0.00
2022-10-05T03:53:13.854Z,0.00
2022-10-05T03:54:13.891Z,0.00
2022-10-05T03:55:13.896Z,0.00
2022-10-05T03:56:13.871Z,0.00
2022-10-05T03:57:13.889Z,0.00
2022-10-05T03:58:13.856Z,0.00
2022-10-05T03:59:13.936Z,0.00
2022-10-05T04:00:13.890Z,0.00
2022-10-05T04:01:13.889Z,0.00
2022-10-05T04:02:13.950Z,0.00
2022-10-05T04:03:13.816Z,0.00
2022-10-05T04:04:13.866Z,0.00
2022-10-05T04:05:13.779Z,0.00
2022-10-05T04:06:13.845Z,0.00
2022-10-05T04:07:13.884Z,0.00
2022-10-05T04:08:13.873Z,0.00
2022-10-05T04:09:13.771Z,0.00
2022-10-05T04:10:13.737Z,0.00
2022-10-05T04:11:13.734Z,0.00
2022-10-05T04:12:13.727Z,0.00
2022-10-05T04:13:13.696Z,0.00
2022-10-05T04:14:13.805Z,0.00
2022-10-05T04:15:18.039Z,0.00
2022-10-05T04:16:13.842Z,0.00
2022-10-05T04:17:13.635Z,0.00
2022-10-05T04:18:13.633Z,0.00
2022-10-05T04:19:13.676Z,0.00
2022-10-05T04:20:13.712Z,0.00
2022-10-05T04:21:13.656Z,0.00
2022-10-05T04:22:13.591Z,0.00
2022-10-05T04:23:13.588Z,0.00
2022-10-05T04:24:13.649Z,0.00
2022-10-05T04:25:13.596Z,0.00
2022-10-05T04:26:13.548Z,0.00
2022-10-05T04:27:13.616Z,0.00
2022-10-05T04:28:13.569Z,0.00
2022-10-05T04:29:13.570Z,0.00
2022-10-05T04:30:13.537Z,0.00
2022-10-05T04:31:13.553Z,0.00
2022-10-05T04:32:13.594Z,0.00
2022-10-05T04:33:13.475Z,0.00
2022-10-05T04:34:13.497Z,0.00
2022-10-05T04:35:13.425Z,0.00
2022-10-05T04:36:13.442Z,0.00
2022-10-05T04:37:13.410Z,0.00
2022-10-05T04:38:13.499Z,0.00
2022-10-05T04:39:13.504Z,0.00
2022-10-05T04:40:13.448Z,0.00
2022-10-05T04:41:13.434Z,0.00
2022-10-05T04:42:13.329Z,0.00
2022-10-05T04:43:13.420Z,0.00
2022-10-05T04:44:13.391Z,0.00
2022-10-05T04:45:13.393Z,0.00
2022-10-05T04:46:13.410Z,0.00
2022-10-05T04:47:13.338Z,0.00
2022-10-05T04:48:13.311Z,0.00
2022-10-05T04:49:13.295Z,0.00
2022-10-05T04:50:13.290Z,0.00
2022-10-05T04:51:13.288Z,0.00
2022-10-05T04:52:13.286Z,0.00
2022-10-05T04:53:13.329Z,0.00
2022-10-05T04:54:13.361Z,0.00
2022-10-05T04:55:13.305Z,0.00
2022-10-05T04:56:13.266Z,0.00
2022-10-05T04:57:13.287Z,0.00
2022-10-05T04:58:13.181Z,0.00
2022-10-05T04:59:13.171Z,0.00
2022-10-05T05:00:13.238Z,0.00
2022-10-05T05:01:13.306Z,0.00
2022-10-05T05:02:13.131Z,0.00
2022-10-05T05:03:13.136Z,0.00
2022-10-05T05:04:13.281Z,0.00
2022-10-05T05:05:13.308Z,0.00
2022-10-05T05:06:17.281Z,0.00
2022-10-05T05:07:13.164Z,0.00
2022-10-05T05:08:13.146Z,0.00
2022-10-05T05:09:13.102Z,0.00
2022-10-05T05:10:13.071Z,0.00
2022-10-05T05:11:16.725Z,1.00
2022-10-05T05:12:13.056Z,0.00
2022-10-05T05:13:13.227Z,1.00
2022-10-05T05:14:13.024Z,1.00
2022-10-05T05:15:12.992Z,1.00
2022-10-05T05:16:13.059Z,2.00
2022-10-05T05:17:13.435Z,2.00
2022-10-05T05:18:12.975Z,1.00
2022-10-05T05:19:12.924Z,1.00
2022-10-05T05:20:12.945Z,2.00
2022-10-05T05:21:12.994Z,2.00
2022-10-05T05:22:12.952Z,2.00
2022-10-05T05:23:12.907Z,2.00
2022-10-05T05:24:12.885Z,5.00
2022-10-05T05:25:12.918Z,6.00
2022-10-05T05:26:13.017Z,2.00
2022-10-05T05:27:12.882Z,9.00
2022-10-05T05:28:12.995Z,10.00
2022-10-05T05:29:12.853Z,13.00
2022-10-05T05:30:12.780Z,9.00
2022-10-05T05:31:12.961Z,12.00
2022-10-05T05:32:12.784Z,17.00
2022-10-05T05:33:12.853Z,18.00
2022-10-05T05:34:12.809Z,15.00
2022-10-05T05:35:12.892Z,19.00
2022-10-05T05:36:12.766Z,20.00
2022-10-05T05:37:12.817Z,27.00
2022-10-05T05:38:12.810Z,23.00
2022-10-05T05:39:12.781Z,30.00
2022-10-05T05:40:12.808Z,30.00
2022-10-05T05:41:12.794Z,30.00
2022-10-05T05:42:12.726Z,32.00
2022-10-05T05:43:12.744Z,40.00
2022-10-05T05:44:12.757Z,40.00
2022-10-05T05:45:12.725Z,47.00
2022-10-05T05:46:12.651Z,52.00
2022-10-05T05:47:13.136Z,59.00
2022-10-05T05:48:12.596Z,58.00
2022-10-05T05:49:12.656Z,69.00
2022-10-05T05:50:12.558Z,71.00
2022-10-05T05:51:12.623Z,81.00
2022-10-05T05:52:12.584Z,101.00
2022-10-05T05:53:12.565Z,89.00
2022-10-05T05:54:12.570Z,103.00
2022-10-05T05:55:12.528Z,120.00
2022-10-05T05:56:12.535Z,136.00
2022-10-05T05:57:12.516Z,134.00
2022-10-05T05:58:12.502Z,141.00
2022-10-05T05:59:12.492Z,137.00
2022-10-05T06:00:12.507Z,162.00
2022-10-05T06:01:30.735Z,170.00
2022-10-05T06:02:12.572Z,192.00
2022-10-05T06:03:12.626Z,186.00
2022-10-05T06:04:12.443Z,231.00
2022-10-05T06:05:12.435Z,198.00
2022-10-05T06:06:12.466Z,228.00
2022-10-05T06:07:12.427Z,223.00
2022-10-05T06:08:12.431Z,232.00
2022-10-05T06:09:12.430Z,227.00
2022-10-05T06:10:12.400Z,232.00
2022-10-05T06:11:12.348Z,274.00
2022-10-05T06:12:12.454Z,244.00
2022-10-05T06:13:12.383Z,248.00
2022-10-05T06:14:12.422Z,269.00
2022-10-05T06:15:12.377Z,255.00
2022-10-05T06:16:12.392Z,317.00
2022-10-05T06:17:12.332Z,363.00
2022-10-05T06:18:12.291Z,359.00
2022-10-05T06:19:12.275Z,413.00
2022-10-05T06:20:12.304Z,429.00
2022-10-05T06:21:12.251Z,375.00
2022-10-05T06:22:12.317Z,433.00
2022-10-05T06:23:12.241Z,389.00
2022-10-05T06:24:12.237Z,433.00
2022-10-05T06:25:12.295Z,455.00
2022-10-05T06:26:12.221Z,424.00
2022-10-05T06:27:12.246Z,445.00
2022-10-05T06:28:12.349Z,484.00
2022-10-05T06:29:12.224Z,461.00
2022-10-05T06:30:12.194Z,420.00
2022-10-05T06:31:12.275Z,391.00
2022-10-05T06:32:12.161Z,361.00
2022-10-05T06:33:12.138Z,409.00
2022-10-05T06:34:12.122Z,457.00
2022-10-05T06:35:12.142Z,481.00
2022-10-05T06:36:12.142Z,458.00
2022-10-05T06:37:12.093Z,489.00
2022-10-05T06:38:12.098Z,498.00
2022-10-05T06:39:12.106Z,479.00
2022-10-05T06:40:12.064Z,498.00
2022-10-05T06:41:12.059Z,530.00
2022-10-05T06:42:12.073Z,505.00
2022-10-05T06:43:12.084Z,492.00
2022-10-05T06:44:12.063Z,526.00
2022-10-05T06:45:12.064Z,485.00
2022-10-05T06:46:12.209Z,662.00
2022-10-05T06:47:12.124Z,552.00
2022-10-05T06:48:11.998Z,502.00
2022-10-05T06:49:12.098Z,513.00
2022-10-05T06:50:11.983Z,539.00
2022-10-05T06:51:11.958Z,621.00
2022-10-05T06:52:11.987Z,634.00
2022-10-05T06:53:11.993Z,683.00
2022-10-05T06:54:11.925Z,678.00
2022-10-05T06:55:14.275Z,759.00
2022-10-05T06:56:11.960Z,700.00
2022-10-05T06:57:12.102Z,712.00
2022-10-05T06:58:11.942Z,684.00
2022-10-05T06:59:11.966Z,749.00
2022-10-05T07:00:11.996Z,755.00
2022-10-05T07:01:11.866Z,791.00
2022-10-05T07:02:11.904Z,792.00
2022-10-05T07:03:11.874Z,763.00
2022-10-05T07:04:11.902Z,715.00
2022-10-05T07:05:12.124Z,789.00
2022-10-05T07:06:11.845Z,849.00
2022-10-05T07:07:11.830Z,825.00
2022-10-05T07:08:11.830Z,882.00
2022-10-05T07:09:11.779Z,876.00
2022-10-05T07:10:11.809Z,828.00
2022-10-05T07:11:11.785Z,854.00
2022-10-05T07:12:11.804Z,787.00
2022-10-05T07:13:11.795Z,779.00
2022-10-05T07:14:11.715Z,767.00
2022-10-05T07:15:11.762Z,695.00
2022-10-05T07:16:11.781Z,643.00
2022-10-05T07:17:11.703Z,631.00
2022-10-05T07:18:26.045Z,568.00
2022-10-05T07:19:11.682Z,521.00
2022-10-05T07:20:11.661Z,440.00
2022-10-05T07:21:11.663Z,429.00
2022-10-05T07:22:11.743Z,488.00
2022-10-05T07:23:11.613Z,406.00
2022-10-05T07:24:11.625Z,378.00
2022-10-05T07:25:11.584Z,464.00
2022-10-05T07:26:11.608Z,457.00
2022-10-05T07:27:40.102Z,471.00
2022-10-05T07:28:11.591Z,484.00
2022-10-05T07:29:11.584Z,473.00
2022-10-05T07:30:11.536Z,514.00
2022-10-05T07:31:11.673Z,545.00
2022-10-05T07:33:25.840Z,533.00
2022-10-05T07:34:26.753Z,521.00
2022-10-05T07:35:26.689Z,572.00
2022-10-05T07:36:26.741Z,532.00
2022-10-05T07:37:26.844Z,475.00
2022-10-05T07:38:26.708Z,553.00
2022-10-05T07:39:42.117Z,588.00
2022-10-05T07:40:26.702Z,524.00
2022-10-05T07:41:26.739Z,542.00
2022-10-05T07:42:26.688Z,441.00
2022-10-05T07:43:32.099Z,535.00
2022-10-05T07:44:26.630Z,676.00
2022-10-05T07:45:26.674Z,584.00
2022-10-05T07:48:12.363Z,618.00
2022-10-05T07:49:13.296Z,591.00
2022-10-05T07:50:13.236Z,598.00
2022-10-05T07:51:13.262Z,619.00
2022-10-05T07:52:44.943Z,808.00
2022-10-05T07:53:13.416Z,718.00
2022-10-05T07:54:13.382Z,749.00
2022-10-05T07:55:13.234Z,761.00
2022-10-05T07:56:13.186Z,961.00
2022-10-05T07:57:13.254Z,989.00
2022-10-05T07:58:13.237Z,1078.00
2022-10-05T07:59:13.305Z,1114.00
2022-10-05T08:00:13.212Z,902.00
2022-10-05T08:01:13.237Z,1170.00
2022-10-05T08:02:13.434Z,1142.00
2022-10-05T08:03:13.195Z,1290.00
2022-10-05T08:04:13.179Z,1245.00
2022-10-05T08:05:13.103Z,1247.00
2022-10-05T08:06:13.186Z,1155.00
2022-10-05T08:07:13.492Z,1139.00
2022-10-05T08:08:15.491Z,1118.00
2022-10-05T08:09:13.339Z,1168.00
2022-10-05T08:10:13.255Z,1138.00
2022-10-05T08:11:13.005Z,1141.00
2022-10-05T08:12:13.846Z,1078.00
2022-10-05T08:13:13.039Z,1368.00
2022-10-05T08:14:13.216Z,1317.00
2022-10-05T08:15:13.165Z,1503.00
2022-10-05T08:16:13.338Z,1356.00
2022-10-05T08:17:13.343Z,1311.00
2022-10-05T08:18:13.098Z,1242.00
2022-10-05T08:19:13.022Z,1384.00
2022-10-05T08:20:13.044Z,1306.00
2022-10-05T08:21:12.945Z,1442.00
2022-10-05T08:22:13.041Z,1651.00
2022-10-05T08:23:13.125Z,1479.00
2022-10-05T08:24:12.949Z,1330.00
2022-10-05T08:25:13.023Z,1498.00
2022-10-05T08:26:12.893Z,1427.00
2022-10-05T08:27:12.926Z,1853.00
2022-10-05T08:28:12.982Z,1630.00
2022-10-05T08:29:14.061Z,1483.00
2022-10-05T08:30:13.005Z,1672.00
2022-10-05T08:31:12.840Z,1488.00
2022-10-05T08:32:12.886Z,1658.00
2022-10-05T08:33:12.848Z,1554.00
2022-10-05T08:34:12.794Z,1876.00
2022-10-05T08:35:12.826Z,1681.00
2022-10-05T08:36:12.762Z,1345.00
2022-10-05T08:37:12.820Z,1698.00
2022-10-05T08:38:12.752Z,1667.00
2022-10-05T08:39:12.747Z,1748.00
2022-10-05T08:40:12.791Z,1847.00
2022-10-05T08:41:12.768Z,1569.00
2022-10-05T08:42:12.733Z,1465.00
2022-10-05T08:43:12.734Z,1596.00
2022-10-05T08:44:12.724Z,1534.00
2022-10-05T08:45:12.733Z,1645.00
2022-10-05T08:46:12.832Z,1694.00
2022-10-05T08:47:13.090Z,1496.00
2022-10-05T08:48:12.697Z,1675.00
2022-10-05T08:49:12.627Z,1510.00
2022-10-05T08:50:12.858Z,1424.00
2022-10-05T08:51:12.640Z,1453.00
2022-10-05T08:52:12.727Z,1832.00
2022-10-05T08:53:12.654Z,1483.00
2022-10-05T08:54:12.650Z,1470.00
2022-10-05T08:55:12.605Z,1598.00
2022-10-05T08:56:15.333Z,1682.00
2022-10-05T08:57:12.623Z,1550.00
2022-10-05T08:58:12.552Z,1889.00
2022-10-05T08:59:12.566Z,1799.00
2022-10-05T09:00:12.889Z,1766.00
2022-10-05T09:01:12.767Z,1949.00
2022-10-05T09:02:12.848Z,1969.00
2022-10-05T09:03:12.455Z,1951.00
2022-10-05T09:04:12.518Z,1768.00
2022-10-05T09:05:12.616Z,2357.00
2022-10-05T09:06:12.469Z,2417.00
2022-10-05T09:07:12.435Z,1818.00
2022-10-05T09:08:12.513Z,2254.00
2022-10-05T09:09:12.440Z,2093.00
2022-10-05T09:10:12.494Z,1868.00
2022-10-05T09:11:12.380Z,1603.00
2022-10-05T09:12:12.395Z,1712.00
2022-10-05T09:13:12.417Z,1866.00
2022-10-05T09:14:12.380Z,1825.00
2022-10-05T09:15:25.354Z,1927.00
2022-10-05T09:16:12.574Z,1937.00
2022-10-05T09:17:12.349Z,1971.00
2022-10-05T09:18:12.375Z,2035.00
2022-10-05T09:19:12.298Z,2098.00
2022-10-05T09:20:12.286Z,1969.00
2022-10-05T09:21:12.299Z,1889.00
2022-10-05T09:22:12.264Z,2025.00
2022-10-05T09:23:12.337Z,1929.00
2022-10-05T09:24:12.250Z,2261.00
2022-10-05T09:25:12.267Z,2173.00
2022-10-05T09:26:12.238Z,2007.00
2022-10-05T09:27:12.267Z,1847.00
2022-10-05T09:28:12.265Z,2123.00
2022-10-05T09:29:12.221Z,2185.00
2022-10-05T09:30:12.178Z,2310.00
2022-10-05T09:31:12.300Z,2045.00
2022-10-05T09:32:16.347Z,2001.00
2022-10-05T09:33:12.172Z,2269.00
2022-10-05T09:34:12.122Z,2382.00
2022-10-05T09:35:12.136Z,2244.00
2022-10-05T09:36:12.107Z,2350.00
2022-10-05T09:37:12.116Z,2207.00
2022-10-05T09:38:12.142Z,2622.00
2022-10-05T09:39:12.068Z,2219.00
2022-10-05T09:40:12.051Z,2631.00
2022-10-05T09:41:12.100Z,2435.00
2022-10-05T09:42:12.114Z,2517.00
2022-10-05T09:43:12.093Z,2117.00
2022-10-05T09:44:12.012Z,2292.00
2022-10-05T09:45:12.100Z,2279.00
2022-10-05T09:46:12.092Z,2312.00
2022-10-05T09:47:12.025Z,2441.00
2022-10-05T09:48:12.074Z,2270.00
2022-10-05T09:49:11.988Z,2117.00
2022-10-05T09:50:12.013Z,2409.00
2022-10-05T09:51:11.965Z,2528.00
2022-10-05T09:52:16.446Z,2728.00
2022-10-05T09:53:11.964Z,2399.00
2022-10-05T09:54:11.944Z,2343.00
2022-10-05T09:55:11.917Z,2785.00
2022-10-05T09:56:11.884Z,2680.00
2022-10-05T09:57:11.931Z,3122.00
2022-10-05T09:58:11.862Z,2691.00
2022-10-05T09:59:11.942Z,2384.00
2022-10-05T10:00:11.925Z,2498.00
2022-10-05T10:01:29.024Z,2297.00
2022-10-05T10:02:11.948Z,2733.00
2022-10-05T10:03:11.848Z,2406.00
2022-10-05T10:04:12.081Z,2789.00
2022-10-05T10:05:11.841Z,2723.00
2022-10-05T10:06:11.798Z,2706.00
2022-10-05T10:07:11.800Z,2779.00
2022-10-05T10:08:11.851Z,2742.00
2022-10-05T10:09:11.755Z,2648.00
2022-10-05T10:10:11.813Z,2248.00
2022-10-05T10:11:11.864Z,2683.00
2022-10-05T10:12:11.956Z,2960.00
2022-10-05T10:13:11.719Z,3202.00
2022-10-05T10:14:11.829Z,2789.00
2022-10-05T10:15:11.881Z,3044.00
2022-10-05T10:16:11.828Z,2689.00
2022-10-05T10:17:11.689Z,2431.00
2022-10-05T10:18:11.700Z,3210.00
2022-10-05T10:19:11.649Z,3002.00
2022-10-05T10:20:11.656Z,2850.00
2022-10-05T10:21:11.671Z,3561.00
2022-10-05T10:22:11.713Z,3226.00
2022-10-05T10:23:11.601Z,2724.00
2022-10-05T10:24:11.647Z,2803.00
2022-10-05T10:25:11.621Z,2589.00
2022-10-05T10:26:11.640Z,3604.00
2022-10-05T10:27:11.613Z,3297.00
2022-10-05T10:28:11.656Z,2910.00
2022-10-05T10:29:11.547Z,3203.00
2022-10-05T10:30:11.633Z,2755.00
2022-10-05T10:31:11.561Z,1316.00
2022-10-05T10:32:11.527Z,4391.00
2022-10-05T10:33:11.537Z,3160.00
2022-10-05T10:34:11.493Z,2704.00
2022-10-05T10:35:11.502Z,3757.00
2022-10-05T10:36:11.469Z,2720.00
2022-10-05T10:37:11.478Z,3041.00
2022-10-05T10:38:11.530Z,2759.00
2022-10-05T10:39:11.488Z,3793.00
2022-10-05T10:40:11.471Z,3177.00
2022-10-05T10:41:11.410Z,3147.00
2022-10-05T10:42:11.429Z,2822.00
2022-10-05T10:43:11.411Z,2817.00
2022-10-05T10:44:11.414Z,2707.00
2022-10-05T10:45:11.434Z,3376.00
2022-10-05T10:46:11.391Z,3074.00
2022-10-05T10:47:11.360Z,3069.00
2022-10-05T10:48:11.354Z,2932.00
2022-10-05T10:49:11.359Z,2122.00
2022-10-05T10:50:11.346Z,3434.00
2022-10-05T10:51:11.314Z,2372.00
2022-10-05T10:52:11.316Z,3387.00
2022-10-05T10:53:11.340Z,2596.00
2022-10-05T10:54:11.298Z,2730.00
2022-10-05T10:55:11.514Z,1608.00
2022-10-05T10:56:11.289Z,4898.00
2022-10-05T10:57:11.266Z,2237.00
2022-10-05T10:58:15.869Z,3365.00
2022-10-05T10:59:11.298Z,2768.00
2022-10-05T11:00:11.317Z,2354.00
2022-10-05T11:01:11.310Z,2971.00
2022-10-05T11:02:11.324Z,2534.00
2022-10-05T11:03:11.270Z,1941.00
2022-10-05T11:04:11.219Z,2902.00
2022-10-05T11:05:11.392Z,2759.00
2022-10-05T11:06:11.170Z,2578.00
2022-10-05T11:07:11.226Z,2301.00
2022-10-05T11:08:11.147Z,3806.00
2022-10-05T11:09:11.151Z,1997.00
2022-10-05T11:10:11.144Z,3443.00
2022-10-05T11:11:11.163Z,2206.00
2022-10-05T11:12:11.092Z,2908.00
2022-10-05T11:13:11.127Z,2552.00
2022-10-05T11:14:11.102Z,2928.00
2022-10-05T11:15:11.145Z,3082.00
2022-10-05T11:16:12.501Z,2288.00
2022-10-05T11:17:11.136Z,2370.00
2022-10-05T11:18:11.158Z,2503.00
2022-10-05T11:19:11.046Z,2201.00
2022-10-05T11:20:11.012Z,2308.00
2022-10-05T11:21:11.033Z,3147.00
2022-10-05T11:22:11.114Z,2464.00
2022-10-05T11:23:10.986Z,2254.00
2022-10-05T11:24:10.989Z,3113.00
2022-10-05T11:25:11.071Z,1453.00
2022-10-05T11:26:10.946Z,3998.00
2022-10-05T11:27:11.050Z,3121.00
2022-10-05T11:28:11.018Z,2596.00
2022-10-05T11:29:10.939Z,1458.00
2022-10-05T11:30:10.957Z,2391.00
2022-10-05T11:31:10.949Z,2106.00
2022-10-05T11:32:13.191Z,1330.00
2022-10-05T11:33:11.628Z,1009.00
2022-10-05T11:34:10.888Z,4159.00
2022-10-05T11:35:10.892Z,1793.00
2022-10-05T11:36:10.853Z,2335.00
2022-10-05T11:37:10.840Z,771.00
2022-10-05T11:38:10.888Z,1849.00
2022-10-05T11:39:10.858Z,1122.00
2022-10-05T11:40:10.845Z,3763.00
2022-10-05T11:41:09.820Z,778.00
2022-10-05T11:42:10.881Z,1716.00
2022-10-05T11:43:10.832Z,1602.00
2022-10-05T11:44:10.798Z,1814.00
2022-10-05T11:45:10.782Z,1620.00
2022-10-05T11:46:10.804Z,1910.00
2022-10-05T11:47:10.750Z,1498.00
2022-10-05T11:48:10.778Z,4063.00
2022-10-05T11:49:10.843Z,2060.00
2022-10-05T11:50:10.764Z,754.00
2022-10-05T11:51:10.803Z,1093.00
2022-10-05T11:52:10.665Z,3407.00
2022-10-05T11:53:10.698Z,748.00
2022-10-05T11:54:10.696Z,4040.00
2022-10-05T11:55:12.236Z,1814.00
2022-10-05T11:56:10.709Z,887.00
2022-10-05T11:57:10.708Z,4076.00
2022-10-05T11:58:10.729Z,2095.00
2022-10-05T11:59:10.714Z,3310.00
2022-10-05T12:00:10.595Z,733.00
2022-10-05T12:01:10.600Z,1615.00
2022-10-05T12:02:10.589Z,2798.00
2022-10-05T12:03:10.666Z,3739.00
2022-10-05T12:04:10.742Z,758.00
2022-10-05T12:05:10.948Z,1651.00
2022-10-05T12:06:10.547Z,2077.00
2022-10-05T12:07:10.551Z,2153.00
2022-10-05T12:08:10.572Z,4384.00
2022-10-05T12:09:10.540Z,882.00
2022-10-05T12:10:10.544Z,1792.00
2022-10-05T12:11:10.496Z,1447.00
2022-10-05T12:12:10.514Z,4219.00
2022-10-05T12:13:10.467Z,1648.00
2022-10-05T12:14:10.443Z,846.00
2022-10-05T12:15:10.520Z,2360.00
2022-10-05T12:16:10.497Z,2637.00
2022-10-05T12:17:10.488Z,2285.00
2022-10-05T12:18:10.401Z,1847.00
2022-10-05T12:19:10.401Z,1708.00
2022-10-05T12:20:10.460Z,1739.00
2022-10-05T12:21:10.419Z,1725.00
2022-10-05T12:22:10.389Z,1739.00
2022-10-05T12:23:10.357Z,1591.00
2022-10-05T12:24:10.343Z,2869.00
2022-10-05T12:25:10.348Z,576.00
2022-10-05T12:26:10.353Z,1696.00
2022-10-05T12:27:10.348Z,1783.00
2022-10-05T12:28:10.424Z,2480.00
2022-10-05T12:29:10.301Z,2993.00
2022-10-05T12:30:10.338Z,690.00
2022-10-05T12:31:10.342Z,1844.00
2022-10-05T12:32:10.881Z,1809.00
2022-10-05T12:33:10.262Z,1555.00
2022-10-05T12:34:10.224Z,1852.00
2022-10-05T12:35:10.242Z,1698.00
2022-10-05T12:36:10.226Z,1673.00
2022-10-05T12:37:10.225Z,1671.00
2022-10-05T12:38:10.176Z,1774.00
2022-10-05T12:39:10.209Z,1695.00
2022-10-05T12:40:10.155Z,1551.00
2022-10-05T12:41:10.214Z,1767.00
2022-10-05T12:42:10.220Z,1595.00
2022-10-05T12:43:10.136Z,1623.00
2022-10-05T12:44:10.159Z,1760.00
2022-10-05T12:45:10.142Z,2532.00
2022-10-05T12:46:10.178Z,1031.00